Thunder radar more information blitzortung!


Rain radar more information rain snow radar


Visit our other weather sites:

Template documentation
and downloads

And another site



There are no active watches, warnings or advisories

Nearby METAR Reports

   
EHVK - Volkel Rnlafb, Netherlands
Distance from station: SW 11 mi
Updated: Jun 23 2021 2:25 pm
Overcast  
Overcast  
   Wind: North 4.6 mph
Wind: North 4.6 mph
Temperature: 62.6°F
Dew Point: 53.6°F
Humidity: 73%
Barometer: 30.15 inHg
Clouds: Overcast
Visibility: More than 6 mi
Cloud details: Few Clouds 3000 ft,
Overcast 3400 ft
EHVK 231825Z AUTO 35004KT 310V030 9999 FEW030 OVC034 17/12 Q1021 BLU
EDLV - Niederrhein, Germany
Distance from station: SE 15 mi
Updated: Jun 23 2021 2:20 pm
Mostly Cloudy  
Mostly Cloudy  
   Wind: varies 3.5 mph
Wind: varies 3.5 mph
Temperature: 64.4°F
Dew Point: 53.6°F
Humidity: 68%
Barometer: 30.12 inHg
Clouds: Mostly Cloudy
Visibility: More than 6 mi
Cloud details: Mostly Cloudy 3500 ft
EDLV 231820Z VRB03KT 9999 BKN035 18/12 Q1020
EHDL - Deelen Rnlafb, Netherlands
Distance from station: N 22 mi
Updated: Jun 23 2021 2:25 pm
Overcast  
Overcast  
   Wind: North 8.1 mph
Wind: North 8.1 mph
Temperature: 60.8°F
Dew Point: 51.8°F
Humidity: 72%
Barometer: 30.15 inHg
Clouds: Overcast
Visibility: More than 6 mi
Cloud details: Mostly Cloudy 3000 ft,
Overcast 3400 ft
EHDL 231825Z AUTO 01007KT 320V040 9999 BKN030 OVC034 16/11 Q1021 BLU
EHEH - Eindhoven Rnlafb, Netherlands
Distance from station: SW 30 mi
Updated: Jun 23 2021 2:25 pm
Overcast  
Overcast  
   Wind: North 8.1 mph
Wind: North 8.1 mph
Temperature: 62.6°F
Dew Point: 51.8°F
Humidity: 68%
Barometer: 30.15 inHg
Clouds: Overcast
Visibility: More than 6 mi
Cloud details: Overcast 3500 ft
EHEH 231825Z AUTO 35007KT 320V020 9999 OVC035 17/11 Q1021 BLU NOSIG
EHGR - Gilze-Rijen Rnla, Netherlands
Distance from station: WSW 43 mi
Updated: Jun 23 2021 2:25 pm
Overcast  
Overcast  
   Wind: NNE 6.9 mph
Wind: NNE 6.9 mph
Temperature: 62.6°F
Dew Point: 51.8°F
Humidity: 68%
Barometer: 30.15 inHg
Clouds: Overcast
Visibility: More than 6 mi
Cloud details: Partly Cloudy 3000 ft,
Overcast 3400 ft
EHGR 231825Z AUTO 02006KT 300V060 9999 SCT030 OVC034 17/11 Q1021 BLU
EBBL - Kleine-Brogel(Ba, Belgium
Distance from station: SSW 44 mi
Updated: Jun 23 2021 1:55 pm
Overcast  
Overcast  
   Wind: North 5.8 mph
Wind: North 5.8 mph
Temperature: 62.6°F
Dew Point: 53.6°F
Humidity: 73%
Barometer: 30.15 inHg
Clouds: Overcast
Visibility: More than 6 mi
Cloud details: Overcast 2900 ft
EBBL 231755Z AUTO 01005KT 9999 OVC029/// 17/12 Q1021 BLU

Script developed by  Saratoga-weather.org Adapted for the template by  Weerstation Leuven

You find our weather info also at:

Weather Underground

AWEKAS

Citizen Weather Observer Program (CWOP)

HAMweather, WeatherForYou, PWS Weather

Equipment we use:

Weather-station
Davis VP2

Weather-program
Weather Display

Weather-server
HP ProDesk 600 G1

Provider
1&1 IONOS

Davis VP2

Weather Display

HP ProDesk 600 G1

1&1 IONOS